KLGD

La Grande / Union County Airport

La Grande, Oregon, USA
METAR KLGD 242356Z AUTO VRB04KT 10SM CLR 23/12 A2999 RMK AO2 SLP290 60014 T02280117 10256 20183 58004
Observed Flight Rules
May-24 @ 23:56 UTC (an hour ago) Visual Flight Rules
Wind Visibility Clouds
Variable at 4 knots 10 miles
  • Clear skies
Temperatures Readings
Current 23°C / 73°F
Dewpoint 12°C / 54°F
Humidity 50%
Altimeter 29.99" Hg
Pressure 1029 hPa
Elevation 827
METAR KLGD 242356Z AUTO VRB04KT 10SM CLR 23/12 A2999 RMK AO2 SLP290 60014 T02280117 10256 20183 58004
Observed Flight Rules
May-24 @ 23:56 UTC
(an hour ago)
VFR
Wind Visibility
Variable at 4 knots 10 miles
Clouds
  • Clear skies
Temperature Dewpoint
23°C / 73°F 12°C / 54°F
Humidity Altimeter Pressure
50% 29.99" Hg 1029 hPa